Time;durP1;ratioP1;P1;durP2;ratioP2;P2;SDS_P1;SDS_P2;PMS_P1;PMS_P2;Temp;Humidity;BMP_temperature;BMP_pressure;BME280_temperature;BME280_humidity;BME280_pressure;Samples;Min_cycle;Max_cycle;Signal;HPM_P1;HPM_P2
2023/03/31 00:00:29;;;;;;;8.15;2.72;;;19.50;91.40;;;;;;5002387;28;20146;-65
2023/03/31 00:02:57;;;;;;;7.82;2.47;;;19.50;91.30;;;;;;5093919;28;20477;-65
2023/03/31 00:05:25;;;;;;;10.05;2.38;;;19.50;91.20;;;;;;5105604;28;20499;-65
2023/03/31 00:08:00;;;;;;;8.10;2.50;;;19.40;91.20;;;;;;5104006;28;20398;-64
2023/03/31 00:10:32;;;;;;;9.80;3.33;;;19.40;91.10;;;;;;4991971;28;20121;-65
2023/03/31 00:12:58;;;;;;;9.70;2.83;;;19.40;91.10;;;;;;4982421;28;20423;-65
2023/03/31 00:15:24;;;;;;;7.25;2.40;;;19.40;91.00;;;;;;4980985;28;20054;-65
2023/03/31 00:17:50;;;;;;;7.72;2.30;;;19.40;91.10;;;;;;4981543;28;20762;-65
2023/03/31 00:20:16;;;;;;;10.38;2.78;;;19.40;91.10;;;;;;4992687;28;20570;-65
2023/03/31 00:22:45;;;;;;;11.02;2.60;;;19.40;91.10;;;;;;4996826;28;20405;-65
2023/03/31 00:25:15;;;;;;;10.75;3.03;;;19.40;91.20;;;;;;4982879;28;20050;-65
2023/03/31 00:27:43;;;;;;;8.93;2.47;;;19.40;91.10;;;;;;4982365;28;20045;-65
2023/03/31 00:30:10;;;;;;;6.97;2.70;;;19.40;91.10;;;;;;4981216;28;20092;-65
2023/03/31 00:32:36;;;;;;;9.90;3.00;;;19.40;91.20;;;;;;4982466;28;20058;-65
2023/03/31 00:35:02;;;;;;;7.47;2.38;;;19.40;91.20;;;;;;4981942;28;20541;-65
2023/03/31 00:37:29;;;;;;;10.88;2.58;;;19.40;91.20;;;;;;4981600;28;20497;-65
2023/03/31 00:39:55;;;;;;;9.57;2.95;;;19.40;91.20;;;;;;4982133;28;20053;-65
2023/03/31 00:42:21;;;;;;;10.93;2.78;;;19.40;91.20;;;;;;5013180;28;20493;-65
2023/03/31 00:45:15;;;;;;;9.85;2.58;;;19.30;91.20;;;;;;4981630;28;20530;-64
2023/03/31 00:47:54;;;;;;;7.35;2.65;;;19.30;91.30;;;;;;4981960;28;20051;-64
2023/03/31 00:50:25;;;;;;;8.90;2.80;;;19.30;91.20;;;;;;4981803;28;20050;-64
2023/03/31 00:53:08;;;;;;;9.63;2.80;;;19.30;91.30;;;;;;4982437;28;20354;-64
2023/03/31 00:55:41;;;;;;;9.18;3.03;;;19.30;91.20;;;;;;4996290;28;20046;-64
2023/03/31 00:58:08;;;;;;;7.75;2.17;;;19.30;91.30;;;;;;4981857;28;20046;-64
2023/03/31 01:00:34;;;;;;;9.85;3.10;;;19.30;91.10;;;;;;4981261;28;20054;-65
2023/03/31 01:03:05;;;;;;;9.57;2.70;;;19.30;91.40;;;;;;4982938;28;20052;-65
2023/03/31 01:05:44;;;;;;;6.68;2.15;;;19.20;91.50;;;;;;4982486;28;20392;-64
2023/03/31 01:08:12;;;;;;;8.20;2.40;;;19.30;91.40;;;;;;4982039;28;20054;-64
2023/03/31 01:10:47;;;;;;;8.93;2.47;;;19.30;91.30;;;;;;4981411;28;20043;-65
2023/03/31 01:13:15;;;;;;;8.00;2.70;;;19.20;91.20;;;;;;4982027;28;20043;-64
2023/03/31 01:15:41;;;;;;;8.65;2.78;;;19.20;91.20;;;;;;4980026;28;20038;-65
2023/03/31 01:18:11;;;;;;;8.10;2.95;;;19.20;91.30;;;;;;4992656;28;20171;-65
2023/03/31 01:21:30;;;;;;;8.38;2.30;;;19.20;91.20;;;;;;5024546;28;20055;-65
2023/03/31 01:24:18;;;;;;;6.55;2.40;;;19.20;91.20;;;;;;5040861;28;20676;-64
2023/03/31 01:26:56;;;;;;;9.10;2.50;;;19.20;91.30;;;;;;5040531;28;20088;-65
2023/03/31 01:29:59;;;;;;;8.30;2.35;;;19.20;91.10;;;;;;4993086;28;20065;-65
2023/03/31 01:33:06;;;;;;;7.57;2.60;;;19.20;91.20;;;;;;4981931;28;20088;-65
2023/03/31 01:35:45;;;;;;;6.78;2.55;;;19.20;91.20;;;;;;5010454;28;20051;-65
2023/03/31 01:38:40;;;;;;;6.63;2.38;;;19.20;91.10;;;;;;4981224;28;20084;-64
2023/03/31 01:41:29;;;;;;;6.60;2.15;;;19.20;91.20;;;;;;4982584;28;20066;-65
2023/03/31 01:44:24;;;;;;;8.18;2.25;;;19.20;91.20;;;;;;4980708;28;20058;-65
2023/03/31 01:47:22;;;;;;;8.57;2.25;;;19.10;91.10;;;;;;4981123;28;20054;-64
2023/03/31 01:50:02;;;;;;;7.47;2.60;;;19.20;91.20;;;;;;4981917;28;20065;-64
2023/03/31 01:52:45;;;;;;;6.28;2.25;;;19.10;91.00;;;;;;4981264;28;20094;-65
2023/03/31 01:55:34;;;;;;;9.15;2.60;;;19.10;91.10;;;;;;4981511;28;20073;-65
2023/03/31 01:58:08;;;;;;;6.18;1.65;;;19.10;91.10;;;;;;4981858;28;20074;-65
2023/03/31 02:00:41;;;;;;;6.95;2.38;;;19.10;91.10;;;;;;4980410;28;20057;-64
2023/03/31 02:03:15;;;;;;;9.35;2.50;;;19.10;91.10;;;;;;4981100;28;20034;-65
2023/03/31 02:05:50;;;;;;;8.77;2.53;;;19.10;91.00;;;;;;4981281;28;20126;-65
2023/03/31 02:08:19;;;;;;;;;;;19.10;91.00;;;;;;4995949;28;20046;-64
2023/03/31 02:10:46;;;;;;;7.45;2.33;;;19.10;91.10;;;;;;4989168;28;19936;-65
2023/03/31 02:13:15;;;;;;;5.90;2.00;;;19.10;91.10;;;;;;4981549;28;20172;-65
2023/03/31 02:15:45;;;;;;;6.85;2.00;;;19.10;91.10;;;;;;4980594;28;20046;-64
2023/03/31 02:18:16;;;;;;;6.63;2.20;;;19.10;91.10;;;;;;4981181;28;20598;-64
2023/03/31 02:20:44;;;;;;;7.47;2.30;;;19.00;91.00;;;;;;4989919;28;20071;-64
2023/03/31 02:23:13;;;;;;;6.35;2.40;;;19.00;91.00;;;;;;4999897;28;20700;-64
2023/03/31 02:25:49;;;;;;;8.05;2.42;;;19.00;91.00;;;;;;5000776;28;20117;-65
2023/03/31 02:28:20;;;;;;;7.90;2.30;;;19.00;91.10;;;;;;5000652;28;20050;-65
2023/03/31 02:31:12;;;;;;;5.90;1.90;;;19.00;91.00;;;;;;4998302;28;20054;-65
2023/03/31 02:33:38;;;;;;;8.00;2.75;;;19.00;91.00;;;;;;5000228;28;20046;-65
2023/03/31 02:36:04;;;;;;;7.53;2.17;;;19.00;91.00;;;;;;4999186;28;20079;-64
2023/03/31 02:38:40;;;;;;;6.03;2.00;;;19.00;91.00;;;;;;5000288;28;20194;-64
2023/03/31 02:41:07;;;;;;;6.22;2.08;;;19.00;91.00;;;;;;5001641;28;20511;-64
2023/03/31 02:43:32;;;;;;;6.47;2.05;;;19.00;90.90;;;;;;5004254;28;20549;-64
2023/03/31 02:45:58;;;;;;;7.28;2.30;;;19.00;91.00;;;;;;5002877;28;20175;-64
2023/03/31 02:48:33;;;;;;;7.60;2.17;;;19.00;91.00;;;;;;5003334;28;20042;-65
2023/03/31 02:51:07;;;;;;;6.95;2.25;;;18.90;90.90;;;;;;5002708;28;20049;-65
2023/03/31 02:53:33;;;;;;;;;;;19.00;90.70;;;;;;5003971;28;20287;-64
2023/03/31 02:56:10;;;;;;;7.55;2.10;;;18.90;90.70;;;;;;5003737;28;20391;-65
2023/03/31 02:58:46;;;;;;;7.30;2.10;;;18.90;90.80;;;;;;5003721;28;20069;-64
2023/03/31 03:01:42;;;;;;;7.63;2.00;;;18.90;90.90;;;;;;5003193;28;20050;-64
2023/03/31 03:04:32;;;;;;;8.23;2.00;;;18.90;90.90;;;;;;5004292;28;20388;-64
2023/03/31 03:07:16;;;;;;;7.22;2.55;;;18.90;90.80;;;;;;5001439;28;20057;-65
2023/03/31 03:10:03;;;;;;;6.40;2.40;;;18.90;90.80;;;;;;5002523;28;20041;-65
2023/03/31 03:12:50;;;;;;;6.72;2.10;;;18.90;90.80;;;;;;5003014;28;20114;-65
2023/03/31 03:15:23;;;;;;;5.93;1.98;;;18.90;90.90;;;;;;5001633;28;20042;-64
2023/03/31 03:17:49;;;;;;;8.60;2.22;;;18.90;90.80;;;;;;5002952;28;20445;-64
2023/03/31 03:20:18;;;;;;;6.82;1.92;;;18.90;90.90;;;;;;4994660;28;20506;-64
2023/03/31 03:22:44;;;;;;;7.80;2.40;;;18.80;90.90;;;;;;4982418;28;20075;-64
2023/03/31 03:25:13;;;;;;;5.95;2.13;;;18.90;90.80;;;;;;4983530;28;20393;-64
2023/03/31 03:27:39;;;;;;;7.05;2.45;;;18.90;90.80;;;;;;4983353;28;20089;-64
2023/03/31 03:30:08;;;;;;;7.22;2.20;;;18.80;90.70;;;;;;4981953;28;20066;-64
2023/03/31 03:32:34;;;;;;;6.35;2.17;;;18.90;90.70;;;;;;4982860;28;20058;-64
2023/03/31 03:35:01;;;;;;;6.05;1.92;;;18.80;90.80;;;;;;4983836;28;20058;-64
2023/03/31 03:37:27;;;;;;;6.13;2.15;;;18.80;90.70;;;;;;4983221;28;20070;-64
2023/03/31 03:39:53;;;;;;;4.95;1.80;;;18.80;90.80;;;;;;4982735;28;20062;-64
2023/03/31 03:42:19;;;;;;;5.63;2.05;;;18.80;90.80;;;;;;4983868;28;20346;-64
2023/03/31 03:44:44;;;;;;;6.93;1.52;;;18.80;90.80;;;;;;4982235;28;20185;-65
2023/03/31 03:47:10;;;;;;;6.78;2.05;;;18.80;90.80;;;;;;4982822;28;20054;-65
2023/03/31 03:49:36;;;;;;;7.07;2.35;;;18.80;90.80;;;;;;4983066;28;20052;-64
2023/03/31 03:52:02;;;;;;;4.82;1.73;;;18.80;90.80;;;;;;4983282;28;20230;-65
2023/03/31 03:54:27;;;;;;;5.38;1.60;;;18.80;90.70;;;;;;4982917;28;20141;-65
2023/03/31 03:56:53;;;;;;;5.65;1.70;;;18.80;90.60;;;;;;4982235;28;20129;-64
2023/03/31 03:59:18;;;;;;;6.55;2.03;;;18.80;90.60;;;;;;4982202;28;20564;-65
2023/03/31 04:01:44;;;;;;;5.45;2.05;;;18.80;90.50;;;;;;4983067;28;20559;-65
2023/03/31 04:04:10;;;;;;;6.60;2.03;;;18.80;90.60;;;;;;4982464;28;20558;-65
2023/03/31 04:06:36;;;;;;;5.03;2.00;;;18.70;90.50;;;;;;4982439;28;20196;-65
2023/03/31 04:09:03;;;;;;;6.25;1.85;;;18.70;90.50;;;;;;4983093;28;20047;-65
2023/03/31 04:11:28;;;;;;;4.47;1.70;;;18.80;90.50;;;;;;4993084;28;20041;-65
2023/03/31 04:13:54;;;;;;;5.22;1.77;;;18.80;90.50;;;;;;4981522;28;20363;-65
2023/03/31 04:16:21;;;;;;;6.50;1.92;;;18.70;90.60;;;;;;4982814;28;20053;-65
2023/03/31 04:18:47;;;;;;;5.55;1.98;;;18.70;90.60;;;;;;4984810;28;20115;-65
2023/03/31 04:21:21;;;;;;;5.88;1.65;;;18.70;90.60;;;;;;4991553;28;20104;-65
2023/03/31 04:23:57;;;;;;;6.93;1.75;;;18.70;90.50;;;;;;4982501;28;20046;-65
2023/03/31 04:26:37;;;;;;;5.25;1.92;;;18.70;90.60;;;;;;4982445;28;20088;-65
2023/03/31 04:29:04;;;;;;;5.35;1.95;;;18.70;90.70;;;;;;4981845;28;20050;-65
2023/03/31 04:31:30;;;;;;;5.57;1.80;;;18.70;90.60;;;;;;4985185;28;20061;-65
2023/03/31 04:34:01;;;;;;;4.88;1.88;;;18.70;90.50;;;;;;4982095;28;20050;-65
2023/03/31 04:36:30;;;;;;;3.80;1.52;;;18.70;90.70;;;;;;4981747;28;20046;-65
2023/03/31 04:38:56;;;;;;;5.65;1.73;;;18.70;90.60;;;;;;4982247;28;20054;-65
2023/03/31 04:41:23;;;;;;;4.85;2.10;;;18.70;90.60;;;;;;4982151;28;20068;-65
2023/03/31 04:43:50;;;;;;;6.30;1.80;;;18.70;90.70;;;;;;4980808;28;20046;-65
2023/03/31 04:46:15;;;;;;;5.68;1.90;;;18.70;90.50;;;;;;4982806;28;20062;-65
2023/03/31 04:48:41;;;;;;;5.03;1.73;;;18.70;90.50;;;;;;4980705;28;20050;-65
2023/03/31 04:51:08;;;;;;;4.10;1.70;;;18.70;90.60;;;;;;4981416;28;20125;-65
2023/03/31 04:53:34;;;;;;;5.35;1.50;;;18.70;90.60;;;;;;4981607;28;20046;-65
2023/03/31 04:56:00;;;;;;;5.57;1.80;;;18.60;90.60;;;;;;4981825;28;20084;-65
2023/03/31 04:58:25;;;;;;;5.32;1.60;;;18.60;90.60;;;;;;4980177;28;20043;-65
2023/03/31 05:00:51;;;;;;;4.68;1.70;;;18.70;90.70;;;;;;4981529;28;20542;-65
2023/03/31 05:03:17;;;;;;;5.95;1.60;;;18.60;90.60;;;;;;4981291;28;20042;-65
2023/03/31 05:05:43;;;;;;;3.78;1.70;;;18.60;90.60;;;;;;4982023;28;20046;-65
2023/03/31 05:08:09;;;;;;;5.15;2.00;;;18.60;90.60;;;;;;4981482;28;20057;-65
2023/03/31 05:10:34;;;;;;;4.70;1.48;;;18.60;90.60;;;;;;4981916;28;20045;-65
2023/03/31 05:13:00;;;;;;;4.85;1.50;;;18.60;90.60;;;;;;4982516;28;20069;-65
2023/03/31 05:15:26;;;;;;;5.32;1.67;;;18.60;90.60;;;;;;4981081;28;20495;-65
2023/03/31 05:17:52;;;;;;;4.40;1.73;;;18.60;90.60;;;;;;4979389;28;20413;-65
2023/03/31 05:20:19;;;;;;;4.15;1.67;;;18.60;90.70;;;;;;4992211;28;20042;-65
2023/03/31 05:22:46;;;;;;;4.40;1.40;;;18.60;90.60;;;;;;4982522;28;20050;-66
2023/03/31 05:25:17;;;;;;;2.95;1.40;;;18.60;90.70;;;;;;4997194;28;20136;-65
2023/03/31 05:27:47;;;;;;;3.97;1.33;;;18.60;90.70;;;;;;4982418;28;20183;-65
2023/03/31 05:30:14;;;;;;;6.05;2.00;;;18.60;90.60;;;;;;4981208;28;20442;-65
2023/03/31 05:32:40;;;;;;;3.55;1.40;;;18.60;90.70;;;;;;4980686;28;20118;-65
2023/03/31 05:35:06;;;;;;;3.95;1.45;;;18.60;90.70;;;;;;4981086;28;20436;-65
2023/03/31 05:37:32;;;;;;;4.10;1.60;;;18.60;90.70;;;;;;4981182;28;20043;-65
2023/03/31 05:39:58;;;;;;;3.78;1.50;;;18.60;90.60;;;;;;4980980;28;20050;-65
2023/03/31 05:42:24;;;;;;;4.05;1.52;;;18.60;90.60;;;;;;4980544;28;20038;-65
2023/03/31 05:44:49;;;;;;;4.72;1.70;;;18.60;90.60;;;;;;4980982;28;20076;-65
2023/03/31 05:47:16;;;;;;;4.07;1.65;;;18.60;90.60;;;;;;4981993;28;20088;-65
2023/03/31 05:49:41;;;;;;;3.25;1.40;;;18.60;90.60;;;;;;4981252;28;20049;-65
2023/03/31 05:52:08;;;;;;;3.40;1.60;;;18.60;90.70;;;;;;4980818;28;20042;-64
2023/03/31 05:54:34;;;;;;;3.05;1.40;;;18.70;90.60;;;;;;4981339;28;20043;-65
2023/03/31 05:56:59;;;;;;;3.75;1.40;;;18.80;90.60;;;;;;4981085;28;20050;-64
2023/03/31 05:59:25;;;;;;;5.07;1.40;;;18.90;90.50;;;;;;4978607;28;20046;-65
2023/03/31 06:01:51;;;;;;;2.65;1.05;;;18.90;90.40;;;;;;4980848;28;20623;-65
2023/03/31 06:04:17;;;;;;;3.70;1.35;;;19.00;90.40;;;;;;4981919;28;20050;-65
2023/03/31 06:06:43;;;;;;;3.38;1.38;;;19.00;90.30;;;;;;4981225;28;20046;-65
2023/03/31 06:09:11;;;;;;;4.65;1.42;;;19.10;90.30;;;;;;4980456;28;20050;-65
2023/03/31 06:11:37;;;;;;;3.35;1.30;;;19.10;90.30;;;;;;4984466;28;20057;-65
2023/03/31 06:14:03;;;;;;;3.90;1.35;;;19.10;90.30;;;;;;4986139;28;20412;-65
2023/03/31 06:16:29;;;;;;;3.55;1.25;;;19.10;90.30;;;;;;5003906;28;20051;-65
2023/03/31 06:18:54;;;;;;;2.75;1.10;;;19.10;90.20;;;;;;5061892;28;20794;-65
2023/03/31 06:21:20;;;;;;;2.67;1.20;;;19.10;90.20;;;;;;4992743;28;20117;-65
2023/03/31 06:23:47;;;;;;;2.88;1.20;;;19.10;90.20;;;;;;4985378;28;20385;-65
2023/03/31 06:26:17;;;;;;;3.20;1.15;;;19.10;90.20;;;;;;4983777;28;20049;-65
2023/03/31 06:28:44;;;;;;;3.20;1.13;;;19.10;90.20;;;;;;4983679;28;20058;-65
2023/03/31 06:31:19;;;;;;;2.65;1.25;;;19.20;90.20;;;;;;4984383;28;20808;-64
2023/03/31 06:33:46;;;;;;;4.38;1.20;;;19.20;90.20;;;;;;4983836;28;20243;-65
2023/03/31 06:36:14;;;;;;;2.90;1.30;;;19.20;90.10;;;;;;4984417;28;20371;-65
2023/03/31 06:38:40;;;;;;;2.88;1.10;;;19.20;90.10;;;;;;4983830;28;20110;-65
2023/03/31 06:41:07;;;;;;;3.00;1.00;;;19.20;90.10;;;;;;5014929;28;20096;-65
2023/03/31 06:43:34;;;;;;;3.55;1.20;;;19.20;90.40;;;;;;4983269;28;20443;-65
2023/03/31 06:46:00;;;;;;;3.53;1.05;;;19.20;90.10;;;;;;4984873;28;20064;-65
2023/03/31 06:48:26;;;;;;;3.63;1.20;;;19.20;90.10;;;;;;4983236;28;20570;-65
2023/03/31 06:50:53;;;;;;;2.97;1.10;;;19.20;90.10;;;;;;4984206;28;20402;-65
2023/03/31 06:53:18;;;;;;;2.65;1.10;;;19.20;90.10;;;;;;4984146;28;20528;-65
2023/03/31 06:55:44;;;;;;;5.40;1.52;;;19.20;90.10;;;;;;4984081;28;20054;-73
2023/03/31 06:58:11;;;;;;;2.97;0.95;;;19.20;90.10;;;;;;4982424;28;20137;-65
2023/03/31 07:00:37;;;;;;;2.92;0.90;;;19.20;90.20;;;;;;4984137;28;20125;-68
2023/03/31 07:03:03;;;;;;;3.28;1.30;;;19.20;90.20;;;;;;4984231;28;20540;-65
2023/03/31 07:05:30;;;;;;;4.20;1.20;;;19.30;90.30;;;;;;4983366;28;20046;-65
2023/03/31 07:07:58;;;;;;;2.85;1.15;;;19.30;90.40;;;;;;4983939;28;20069;-65
2023/03/31 07:10:26;;;;;;;2.95;1.20;;;19.30;90.40;;;;;;4983931;28;20412;-66
2023/03/31 07:12:51;;;;;;;3.30;1.15;;;19.30;90.40;;;;;;5015670;28;20412;-66
2023/03/31 07:15:17;;;;;;;2.40;1.10;;;19.40;90.50;;;;;;4982878;28;20103;-66
2023/03/31 07:17:43;;;;;;;3.25;1.27;;;19.30;90.60;;;;;;4998662;28;20118;-66
2023/03/31 07:20:13;;;;;;;2.58;1.00;;;19.40;90.70;;;;;;4994209;28;20346;-65
2023/03/31 07:22:40;;;;;;;3.95;1.33;;;19.40;90.70;;;;;;4982806;28;20042;-65
2023/03/31 07:25:07;;;;;;;3.80;0.90;;;19.40;90.80;;;;;;4998617;28;20043;-65
2023/03/31 07:27:33;;;;;;;5.40;1.40;;;19.40;90.80;;;;;;4982744;28;20281;-65
2023/03/31 07:29:59;;;;;;;3.60;1.30;;;19.40;90.90;;;;;;4982046;28;20510;-65
2023/03/31 07:32:25;;;;;;;3.38;1.10;;;19.40;91.00;;;;;;4983203;28;20046;-65
2023/03/31 07:34:50;;;;;;;3.55;1.02;;;19.40;91.00;;;;;;4983503;28;20055;-65
2023/03/31 07:37:16;;;;;;;3.75;1.20;;;19.40;91.10;;;;;;4983747;28;20408;-65
2023/03/31 07:39:42;;;;;;;2.92;1.30;;;19.40;91.20;;;;;;4982720;28;20545;-65
2023/03/31 07:42:08;;;;;;;3.28;1.15;;;19.40;91.20;;;;;;4983484;28;20117;-65
2023/03/31 07:44:34;;;;;;;3.08;1.20;;;19.40;91.20;;;;;;4982719;28;20141;-65
2023/03/31 07:47:03;;;;;;;3.88;1.17;;;19.40;91.20;;;;;;4983566;28;20039;-65
2023/03/31 07:49:30;;;;;;;4.93;1.15;;;19.40;91.20;;;;;;4997934;28;20097;-65
2023/03/31 07:51:55;;;;;;;3.10;1.17;;;19.40;91.30;;;;;;4982877;28;20042;-65
2023/03/31 07:54:21;;;;;;;2.58;1.00;;;19.40;91.40;;;;;;4982926;28;20500;-65
2023/03/31 07:56:47;;;;;;;2.75;1.20;;;19.40;91.40;;;;;;4982401;28;20077;-64
2023/03/31 07:59:13;;;;;;;2.90;0.98;;;19.40;91.50;;;;;;4981692;28;20755;-65
2023/03/31 08:01:39;;;;;;;4.18;1.17;;;19.40;91.70;;;;;;4983144;28;20100;-65
2023/03/31 08:04:05;;;;;;;2.70;1.10;;;19.40;91.50;;;;;;4996741;28;20058;-65
2023/03/31 08:06:31;;;;;;;3.17;1.17;;;19.40;91.70;;;;;;5038777;27;20043;-65
2023/03/31 08:08:57;;;;;;;3.00;1.00;;;19.40;91.70;;;;;;5032915;28;20064;-66
2023/03/31 08:11:24;;;;;;;2.50;0.90;;;19.40;91.90;;;;;;5079964;28;20041;-65
2023/03/31 08:13:50;;;;;;;2.88;1.00;;;19.40;92.00;;;;;;5061600;28;20059;-65
2023/03/31 08:16:16;;;;;;;2.35;0.90;;;19.40;92.20;;;;;;5043862;28;20034;-65
2023/03/31 08:18:42;;;;;;;3.22;0.95;;;19.40;92.30;;;;;;4990743;28;20042;-65
2023/03/31 08:21:11;;;;;;;4.05;1.20;;;19.40;92.40;;;;;;4986346;28;20049;-65
2023/03/31 08:23:36;;;;;;;3.13;0.90;;;19.40;92.40;;;;;;4987851;28;20038;-65
2023/03/31 08:26:11;;;;;;;2.35;0.98;;;19.40;92.40;;;;;;4988896;28;20065;-65
2023/03/31 08:28:37;;;;;;;3.17;0.98;;;19.40;92.40;;;;;;4987811;28;20050;-65
2023/03/31 08:31:04;;;;;;;2.15;0.95;;;19.40;92.40;;;;;;4987346;28;20636;-65
2023/03/31 08:33:30;;;;;;;3.35;1.05;;;19.40;92.50;;;;;;4987188;28;20058;-65
2023/03/31 08:35:56;;;;;;;1.77;0.90;;;19.40;92.50;;;;;;4987132;28;20439;-65
2023/03/31 08:38:21;;;;;;;2.22;0.80;;;19.30;92.40;;;;;;4985967;28;20089;-65
2023/03/31 08:40:47;;;;;;;2.75;0.90;;;19.30;92.60;;;;;;4987590;28;20042;-64
2023/03/31 08:43:25;;;;;;;2.42;0.80;;;19.40;92.60;;;;;;4989328;28;20148;-64
2023/03/31 08:45:52;;;;;;;2.30;0.90;;;19.40;92.60;;;;;;4986728;28;20268;-66
2023/03/31 08:48:50;;;;;;;3.33;0.98;;;19.40;92.60;;;;;;4987298;28;20129;-65
2023/03/31 08:51:20;;;;;;;3.08;1.00;;;19.40;92.70;;;;;;4987942;28;20526;-65
2023/03/31 08:53:58;;;;;;;2.25;0.93;;;19.40;92.70;;;;;;4986300;28;20077;-65
2023/03/31 08:56:26;;;;;;;2.70;1.00;;;19.40;92.50;;;;;;4987078;28;20042;-65
2023/03/31 08:58:52;;;;;;;2.78;1.10;;;19.30;92.30;;;;;;4986456;28;20046;-65
2023/03/31 09:01:40;;;;;;;2.42;0.98;;;19.30;92.40;;;;;;4989770;28;20076;-65
2023/03/31 09:04:31;;;;;;;5.75;1.38;;;19.30;92.40;;;;;;4989631;28;20049;-65
2023/03/31 09:07:20;;;;;;;2.08;0.98;;;19.40;92.60;;;;;;4989859;28;20041;-65
2023/03/31 09:10:22;;;;;;;3.30;0.90;;;19.30;92.50;;;;;;4987417;28;20069;-66
2023/03/31 09:12:53;;;;;;;4.05;1.38;;;19.30;92.60;;;;;;4986465;28;20046;-66
2023/03/31 09:15:31;;;;;;;2.88;1.00;;;19.30;92.50;;;;;;4986978;28;20135;-66
2023/03/31 09:18:03;;;;;;;3.83;1.25;;;19.30;92.60;;;;;;4986574;28;20059;-66
2023/03/31 09:20:35;;;;;;;2.17;1.00;;;19.30;92.60;;;;;;4986978;28;20045;-63
2023/03/31 09:23:17;;;;;;;3.63;1.30;;;19.30;92.60;;;;;;4987120;28;20048;-71
2023/03/31 09:25:44;;;;;;;3.80;1.02;;;19.30;92.40;;;;;;4986816;28;20053;-67
2023/03/31 09:28:20;;;;;;;105.68;49.78;;;19.30;92.30;;;;;;4985308;28;20079;-69
2023/03/31 09:30:50;;;;;;;67.80;37.72;;;19.40;95.40;;;;;;4985524;28;20054;-72
2023/03/31 09:33:30;;;;;;;74.75;43.88;;;19.40;97.60;;;;;;5019033;28;20396;-69
2023/03/31 09:35:59;;;;;;;93.93;56.67;;;19.50;98.50;;;;;;4988127;28;20454;-77
2023/03/31 09:38:28;;;;;;;68.13;43.92;;;19.50;99.90;;;;;;4987854;28;20058;-66
2023/03/31 09:40:56;;;;;;;57.63;37.92;;;19.50;99.90;;;;;;4985477;28;20074;-66
2023/03/31 09:43:27;;;;;;;46.80;31.33;;;19.60;98.70;;;;;;4981730;28;20049;-66
2023/03/31 09:45:53;;;;;;;45.50;29.85;;;19.60;97.90;;;;;;4986425;28;20042;-65
2023/03/31 09:48:25;;;;;;;36.33;23.88;;;19.60;97.60;;;;;;4987950;28;20038;-67
2023/03/31 09:51:15;;;;;;;39.70;25.20;;;19.60;97.70;;;;;;4988060;28;20077;-66
2023/03/31 09:54:11;;;;;;;33.10;23.00;;;19.50;97.60;;;;;;4992032;28;20049;-71
2023/03/31 09:56:51;;;;;;;32.10;21.73;;;19.60;97.60;;;;;;5020364;28;20479;-66
2023/03/31 09:59:29;;;;;;;29.60;19.48;;;19.50;97.50;;;;;;4988004;28;20385;-64
2023/03/31 10:01:59;;;;;;;28.05;18.38;;;19.50;97.20;;;;;;4988610;28;20145;-67
2023/03/31 10:04:31;;;;;;;29.02;17.55;;;19.50;96.90;;;;;;4988073;28;20046;-66
2023/03/31 10:06:59;;;;;;;25.95;16.20;;;19.50;96.90;;;;;;4990587;28;20126;-67
2023/03/31 10:09:29;;;;;;;25.10;15.88;;;19.50;97.00;;;;;;4995407;28;20042;-66
2023/03/31 10:12:05;;;;;;;21.38;15.07;;;19.50;97.00;;;;;;4989958;28;20049;-66
2023/03/31 10:14:48;;;;;;;20.15;13.18;;;19.50;97.30;;;;;;4987655;28;20072;-73
2023/03/31 10:17:16;;;;;;;33.65;24.55;;;19.50;96.80;;;;;;4989889;28;20042;-71
2023/03/31 10:20:06;;;;;;;40.50;29.58;;;19.50;97.70;;;;;;4987987;28;20122;-68
2023/03/31 10:22:32;;;;;;;56.65;43.35;;;19.50;99.00;;;;;;4989092;28;20046;-80
2023/03/31 10:25:20;;;;;;;54.70;42.03;;;19.50;99.90;;;;;;4988168;28;20039;-78
2023/03/31 10:27:51;;;;;;;50.92;38.88;;;19.50;99.90;;;;;;4987511;28;20046;-67
2023/03/31 10:30:22;;;;;;;49.45;37.33;;;19.50;99.90;;;;;;4988358;28;20625;-77
2023/03/31 10:32:47;;;;;;;46.47;35.22;;;19.50;99.90;;;;;;4987984;28;20137;-68
2023/03/31 10:35:34;;;;;;;41.97;31.58;;;19.50;99.90;;;;;;4988811;28;20453;-67
2023/03/31 10:38:09;;;;;;;34.05;26.58;;;19.50;99.90;;;;;;4985701;28;20507;-65
2023/03/31 10:40:35;;;;;;;36.80;26.55;;;19.50;99.40;;;;;;4988630;28;20049;-65
2023/03/31 10:43:27;;;;;;;32.78;24.02;;;19.50;99.20;;;;;;4988514;28;20392;-67
2023/03/31 10:46:00;;;;;;;31.10;22.65;;;19.50;98.80;;;;;;5004083;28;20065;-65
2023/03/31 10:48:34;;;;;;;30.70;21.95;;;19.50;98.70;;;;;;4988925;28;20065;-67
2023/03/31 10:51:05;;;;;;;30.85;21.75;;;19.50;98.60;;;;;;5021470;27;20053;-66
2023/03/31 10:53:40;;;;;;;27.10;19.95;;;19.40;98.40;;;;;;4988478;28;20042;-65
2023/03/31 10:56:24;;;;;;;26.13;18.15;;;19.40;98.40;;;;;;4983724;28;20313;-68
2023/03/31 10:59:20;;;;;;;24.63;17.73;;;19.40;98.30;;;;;;4990948;28;20050;-66
2023/03/31 11:02:19;;;;;;;22.42;17.40;;;19.50;98.20;;;;;;4987032;28;20065;-67
2023/03/31 11:05:26;;;;;;;22.33;15.65;;;19.50;98.10;;;;;;4988596;28;20044;-66
2023/03/31 11:08:17;;;;;;;19.67;14.73;;;19.50;98.00;;;;;;4963152;28;20058;-67
2023/03/31 11:10:51;;;;;;;20.73;13.65;;;19.50;97.80;;;;;;4988300;28;20075;-66
2023/03/31 11:13:45;;;;;;;20.27;13.88;;;19.50;97.90;;;;;;4987136;28;20046;-66
2023/03/31 11:16:32;;;;;;;16.90;12.38;;;19.50;98.10;;;;;;5005349;28;20401;-65
2023/03/31 11:19:07;;;;;;;18.92;12.35;;;19.60;98.20;;;;;;4987789;28;20049;-66
2023/03/31 11:22:00;;;;;;;18.35;11.13;;;19.40;98.30;;;;;;4987818;28;20130;-66
2023/03/31 11:24:41;;;;;;;18.33;10.70;;;19.40;98.50;;;;;;4988178;28;22291;-64
2023/03/31 11:27:26;;;;;;;14.52;10.35;;;19.40;98.50;;;;;;4986762;28;20197;-66
2023/03/31 11:30:16;;;;;;;14.35;9.80;;;19.40;98.40;;;;;;4986499;28;20056;-65
2023/03/31 11:33:00;;;;;;;12.70;9.52;;;19.40;98.40;;;;;;4987416;28;20072;-66
2023/03/31 11:35:53;;;;;;;13.40;8.43;;;19.50;99.00;;;;;;4988148;28;20144;-66
2023/03/31 11:38:38;;;;;;;13.18;8.57;;;19.50;99.40;;;;;;4987242;28;20042;-66
2023/03/31 11:41:15;;;;;;;12.55;8.68;;;19.50;99.70;;;;;;4986774;28;20413;-65
2023/03/31 11:43:49;;;;;;;9.90;7.63;;;19.60;99.40;;;;;;4987922;28;20065;-65
2023/03/31 11:46:26;;;;;;;12.27;7.47;;;19.60;99.90;;;;;;4987400;28;20117;-64
2023/03/31 11:48:58;;;;;;;9.57;6.70;;;19.60;99.70;;;;;;4987881;28;20420;-65
2023/03/31 11:51:43;;;;;;;10.57;6.35;;;19.60;99.80;;;;;;4987965;28;20743;-66
2023/03/31 11:54:22;;;;;;;9.50;6.65;;;19.60;99.60;;;;;;4987177;28;20424;-65
2023/03/31 11:56:48;;;;;;;10.35;6.10;;;19.60;99.50;;;;;;4987157;28;20050;-65
2023/03/31 11:59:16;;;;;;;7.95;5.45;;;19.60;99.00;;;;;;4986768;28;20038;-65
2023/03/31 12:01:48;;;;;;;8.38;4.97;;;19.60;99.00;;;;;;4988021;28;21101;-63
2023/03/31 12:04:32;;;;;;;8.65;5.20;;;19.60;98.90;;;;;;4989315;28;20594;-64
2023/03/31 12:07:09;;;;;;;7.10;4.93;;;19.60;98.80;;;;;;4987162;28;20088;-65
2023/03/31 12:09:47;;;;;;;6.15;4.22;;;19.50;98.90;;;;;;4990944;28;20359;-63
2023/03/31 12:12:19;;;;;;;6.57;4.13;;;19.60;98.50;;;;;;4985835;28;20735;-65
2023/03/31 12:14:52;;;;;;;5.57;3.95;;;19.60;98.30;;;;;;4985992;28;20140;-65
2023/03/31 12:17:21;;;;;;;7.15;3.95;;;19.70;98.20;;;;;;4988734;28;20047;-65
2023/03/31 12:19:50;;;;;;;6.22;3.58;;;19.60;98.20;;;;;;4986809;28;20181;-65
2023/03/31 12:22:22;;;;;;;7.63;3.80;;;19.60;98.10;;;;;;4985573;28;20034;-67
2023/03/31 12:24:48;;;;;;;7.05;3.67;;;19.60;98.20;;;;;;4986417;28;20081;-64
2023/03/31 12:27:38;;;;;;;8.02;3.10;;;19.60;98.20;;;;;;4986499;28;20041;-63
2023/03/31 12:30:19;;;;;;;5.35;3.28;;;19.50;97.90;;;;;;4987738;28;20038;-65
2023/03/31 12:32:55;;;;;;;6.50;3.13;;;19.50;98.00;;;;;;4987570;28;20053;-65
2023/03/31 12:35:32;;;;;;;4.90;3.22;;;19.50;98.10;;;;;;4988164;28;20051;-64
2023/03/31 12:38:46;;;;;;;12.70;3.05;;;19.50;98.10;;;;;;4986634;28;20053;-64
2023/03/31 12:41:21;;;;;;;3.88;3.03;;;19.70;98.20;;;;;;4988780;28;20107;-65
2023/03/31 12:44:07;;;;;;;5.50;2.97;;;19.70;97.90;;;;;;4987497;28;21909;-65
2023/03/31 12:46:39;;;;;;;6.47;3.00;;;19.80;98.00;;;;;;4987387;28;20079;-69
2023/03/31 12:49:13;;;;;;;5.50;2.60;;;19.80;97.80;;;;;;4986887;28;20038;-66
2023/03/31 12:51:55;;;;;;;;;;;19.80;97.60;;;;;;4992626;28;20103;-66
2023/03/31 12:54:36;;;;;;;4.55;2.45;;;19.80;97.50;;;;;;4986917;28;20280;-63
2023/03/31 12:57:11;;;;;;;4.45;2.40;;;19.80;97.40;;;;;;4986735;28;20061;-66
2023/03/31 12:59:41;;;;;;;;;;;19.80;97.40;;;;;;4988072;28;20035;-64
2023/03/31 13:02:15;;;;;;;6.28;2.40;;;19.80;97.30;;;;;;4987906;28;19929;-70
2023/03/31 13:04:42;;;;;;;4.38;1.95;;;19.70;97.30;;;;;;4987233;28;20050;-68
2023/03/31 13:07:25;;;;;;;4.45;2.10;;;19.70;97.20;;;;;;4988011;28;20069;-65
2023/03/31 13:10:20;;;;;;;3.95;2.15;;;19.70;97.20;;;;;;4986906;28;20080;-64
2023/03/31 13:13:13;;;;;;;4.85;2.20;;;19.70;97.10;;;;;;4983937;28;20050;-62